createdAt,value
2019-03-27T00:00:35.634Z,2.80
2019-03-27T00:01:35.625Z,3.20
2019-03-27T00:02:35.612Z,2.80
2019-03-27T00:03:35.604Z,2.50
2019-03-27T00:04:35.586Z,2.60
2019-03-27T00:05:35.581Z,2.90
2019-03-27T00:06:35.566Z,2.80
2019-03-27T00:07:35.563Z,3.10
2019-03-27T00:08:35.546Z,2.90
2019-03-27T00:09:35.536Z,2.90
2019-03-27T00:10:35.548Z,2.60
2019-03-27T00:11:35.535Z,2.90
2019-03-27T00:12:35.505Z,3.00
2019-03-27T00:13:35.497Z,2.60
2019-03-27T00:14:35.483Z,2.70
2019-03-27T00:15:35.474Z,2.70
2019-03-27T00:16:35.458Z,2.80
2019-03-27T00:17:35.446Z,2.90
2019-03-27T00:18:35.447Z,2.90
2019-03-27T00:19:35.427Z,2.80
2019-03-27T00:20:35.435Z,2.60
2019-03-27T00:21:35.409Z,2.80
2019-03-27T00:22:35.482Z,2.80
2019-03-27T00:23:35.385Z,3.00
2019-03-27T00:24:35.380Z,2.80
2019-03-27T00:25:35.365Z,2.50
2019-03-27T00:26:35.354Z,2.60
2019-03-27T00:27:35.343Z,2.80
2019-03-27T00:28:35.330Z,3.00
2019-03-27T00:29:35.322Z,2.70
2019-03-27T00:30:35.322Z,2.80
2019-03-27T00:31:35.305Z,2.70
2019-03-27T00:32:35.298Z,2.50
2019-03-27T00:33:35.281Z,2.40
2019-03-27T00:34:35.267Z,2.60
2019-03-27T00:35:35.253Z,2.80
2019-03-27T00:36:35.261Z,2.50
2019-03-27T00:37:35.247Z,2.50
2019-03-27T00:38:35.236Z,2.50
2019-03-27T00:39:35.213Z,2.40
2019-03-27T00:40:35.201Z,2.60
2019-03-27T00:41:35.193Z,2.60
2019-03-27T00:42:35.181Z,2.30
2019-03-27T00:43:35.172Z,2.70
2019-03-27T00:44:35.160Z,2.60
2019-03-27T00:45:35.154Z,2.50
2019-03-27T00:46:35.137Z,2.40
2019-03-27T00:47:35.136Z,2.40
2019-03-27T00:48:35.117Z,2.50
2019-03-27T00:49:35.110Z,2.30
2019-03-27T00:50:35.099Z,2.50
2019-03-27T00:51:35.082Z,2.50
2019-03-27T00:52:35.077Z,2.50
2019-03-27T00:53:35.071Z,2.00
2019-03-27T00:54:35.050Z,2.30
2019-03-27T00:55:35.047Z,2.20
2019-03-27T00:56:35.027Z,2.60
2019-03-27T00:57:35.022Z,2.60
2019-03-27T00:58:35.008Z,3.00
2019-03-27T00:59:34.997Z,2.60
2019-03-27T01:00:34.986Z,2.40
2019-03-27T01:01:34.983Z,2.50
2019-03-27T01:02:34.966Z,2.40
2019-03-27T01:03:34.953Z,2.50
2019-03-27T01:04:34.947Z,2.70
2019-03-27T01:05:34.940Z,2.20
2019-03-27T01:06:34.934Z,2.50
2019-03-27T01:07:34.919Z,2.30
2019-03-27T01:08:34.911Z,2.40
2019-03-27T01:09:34.894Z,2.30
2019-03-27T01:10:34.884Z,2.30
2019-03-27T01:11:34.872Z,2.70
2019-03-27T01:12:34.864Z,2.40
2019-03-27T01:13:34.850Z,2.70
2019-03-27T01:14:34.835Z,2.20
2019-03-27T01:15:40.067Z,2.30
2019-03-27T01:16:35.813Z,2.30
2019-03-27T01:17:34.806Z,2.30
2019-03-27T01:18:34.791Z,2.30
2019-03-27T01:19:34.782Z,2.40
2019-03-27T01:20:34.770Z,2.60
2019-03-27T01:21:34.773Z,2.90
2019-03-27T01:22:34.757Z,2.60
2019-03-27T01:23:34.737Z,1.90
2019-03-27T01:24:34.729Z,2.10
2019-03-27T01:25:34.728Z,2.20
2019-03-27T01:26:34.715Z,2.50
2019-03-27T01:27:35.853Z,2.30
2019-03-27T01:28:34.686Z,2.20
2019-03-27T01:29:34.673Z,2.90
2019-03-27T01:30:34.665Z,2.10
2019-03-27T01:31:34.655Z,2.00
2019-03-27T01:32:34.642Z,2.40
2019-03-27T01:33:34.632Z,2.20
2019-03-27T01:34:34.624Z,2.30
2019-03-27T01:35:34.609Z,2.20
2019-03-27T01:36:34.604Z,2.20
2019-03-27T01:37:34.587Z,2.10
2019-03-27T01:38:34.594Z,2.30
2019-03-27T01:39:34.565Z,2.30
2019-03-27T01:40:34.560Z,2.30
2019-03-27T01:41:34.642Z,2.20
2019-03-27T01:42:34.551Z,2.40
2019-03-27T01:43:34.525Z,2.00
2019-03-27T01:44:34.530Z,2.20
2019-03-27T01:45:34.545Z,2.10
2019-03-27T01:46:34.494Z,2.30
2019-03-27T01:47:34.482Z,2.30
2019-03-27T01:48:34.467Z,2.40
2019-03-27T01:49:34.464Z,2.30
2019-03-27T01:50:34.446Z,2.20
2019-03-27T01:51:34.434Z,2.40
2019-03-27T01:52:34.424Z,2.20
2019-03-27T01:53:34.426Z,2.00
2019-03-27T01:54:34.404Z,2.20
2019-03-27T01:55:34.396Z,2.50
2019-03-27T01:56:34.385Z,2.30
2019-03-27T01:57:34.374Z,2.30
2019-03-27T01:58:34.360Z,2.10
2019-03-27T01:59:34.355Z,2.00
2019-03-27T02:00:34.342Z,1.90
2019-03-27T02:01:34.334Z,2.20
2019-03-27T02:02:34.317Z,2.00
2019-03-27T02:03:34.310Z,2.10
2019-03-27T02:04:34.295Z,2.40
2019-03-27T02:05:34.294Z,2.00
2019-03-27T02:06:34.282Z,2.30
2019-03-27T02:07:34.266Z,2.20
2019-03-27T02:08:34.252Z,2.30
2019-03-27T02:09:34.250Z,2.00
2019-03-27T02:10:34.232Z,2.20
2019-03-27T02:11:34.227Z,2.10
2019-03-27T02:12:34.217Z,2.10
2019-03-27T02:13:34.216Z,2.10
2019-03-27T02:14:34.195Z,2.20
2019-03-27T02:15:34.177Z,2.20
2019-03-27T02:16:34.171Z,2.10
2019-03-27T02:17:34.158Z,2.20
2019-03-27T02:18:34.152Z,2.10
2019-03-27T02:19:34.135Z,2.40
2019-03-27T02:20:34.134Z,2.20
2019-03-27T02:21:34.141Z,1.90
2019-03-27T02:22:34.115Z,2.00
2019-03-27T02:23:34.096Z,2.00
2019-03-27T02:24:34.079Z,2.00
2019-03-27T02:25:34.071Z,2.20
2019-03-27T02:26:34.064Z,2.10
2019-03-27T02:27:34.046Z,2.30
2019-03-27T02:28:34.039Z,2.30
2019-03-27T02:29:34.032Z,2.10
2019-03-27T02:30:34.017Z,2.20
2019-03-27T02:31:34.009Z,1.90
2019-03-27T02:32:34.020Z,2.30
2019-03-27T02:33:33.985Z,2.20
2019-03-27T02:34:33.984Z,2.20
2019-03-27T02:35:33.963Z,2.10
2019-03-27T02:36:33.958Z,2.20
2019-03-27T02:37:33.940Z,2.00
2019-03-27T02:38:33.940Z,2.10
2019-03-27T02:39:33.981Z,2.00
2019-03-27T02:40:33.912Z,2.30
2019-03-27T02:41:33.901Z,2.20
2019-03-27T02:42:33.884Z,1.90
2019-03-27T02:43:33.883Z,2.00
2019-03-27T02:44:33.866Z,2.10
2019-03-27T02:45:33.859Z,2.20
2019-03-27T02:46:33.868Z,2.30
2019-03-27T02:47:33.830Z,2.40
2019-03-27T02:48:33.826Z,2.20
2019-03-27T02:49:33.815Z,2.30
2019-03-27T02:50:33.912Z,1.90
2019-03-27T02:51:33.794Z,2.00
2019-03-27T02:52:33.781Z,2.10
2019-03-27T02:53:33.769Z,2.20
2019-03-27T02:54:33.758Z,1.80
2019-03-27T02:55:33.757Z,1.90
2019-03-27T02:56:33.753Z,1.90
2019-03-27T02:57:33.732Z,2.40
2019-03-27T02:58:33.719Z,2.10
2019-03-27T02:59:33.702Z,2.00
2019-03-27T03:00:33.711Z,2.00
2019-03-27T03:01:33.689Z,1.90
2019-03-27T03:02:33.676Z,2.10
2019-03-27T03:03:33.676Z,1.90
2019-03-27T03:04:33.656Z,2.20
2019-03-27T03:05:33.643Z,2.30
2019-03-27T03:06:33.649Z,2.00
2019-03-27T03:07:33.631Z,2.10
2019-03-27T03:08:33.615Z,1.80
2019-03-27T03:09:33.611Z,2.20
2019-03-27T03:10:33.589Z,1.90
2019-03-27T03:11:33.576Z,1.70
2019-03-27T03:12:33.574Z,2.00
2019-03-27T03:13:33.568Z,2.10
2019-03-27T03:14:33.548Z,1.80
2019-03-27T03:15:33.540Z,2.10
2019-03-27T03:16:41.891Z,1.80
2019-03-27T03:17:34.513Z,1.70
2019-03-27T03:18:33.504Z,1.80
2019-03-27T03:19:33.499Z,1.60
2019-03-27T03:20:33.489Z,1.90
2019-03-27T03:21:33.476Z,2.10
2019-03-27T03:22:33.456Z,2.00
2019-03-27T03:23:33.473Z,2.00
2019-03-27T03:24:33.443Z,1.80
2019-03-27T03:25:33.437Z,2.00
2019-03-27T03:26:33.420Z,1.90
2019-03-27T03:27:33.404Z,1.80
2019-03-27T03:28:33.394Z,1.70
2019-03-27T03:29:33.382Z,2.10
2019-03-27T03:30:33.399Z,1.80
2019-03-27T03:31:33.389Z,2.70
2019-03-27T03:32:33.533Z,2.10
2019-03-27T03:33:33.341Z,1.60
2019-03-27T03:34:33.336Z,2.00
2019-03-27T03:35:33.319Z,1.70
2019-03-27T03:36:33.304Z,1.80
2019-03-27T03:37:33.308Z,1.70
2019-03-27T03:38:33.310Z,1.90
2019-03-27T03:39:33.268Z,1.60
2019-03-27T03:40:33.257Z,1.70
2019-03-27T03:41:33.257Z,1.90
2019-03-27T03:42:33.247Z,1.80
2019-03-27T03:43:33.227Z,1.70
2019-03-27T03:44:33.222Z,1.80
2019-03-27T03:45:33.249Z,1.90
2019-03-27T03:46:33.200Z,1.60
2019-03-27T03:47:33.183Z,1.90
2019-03-27T03:48:33.178Z,1.80
2019-03-27T03:49:33.158Z,1.90
2019-03-27T03:50:33.157Z,1.80
2019-03-27T03:51:33.165Z,2.00
2019-03-27T03:52:33.132Z,1.90
2019-03-27T03:53:33.115Z,2.00
2019-03-27T03:54:33.118Z,1.70
2019-03-27T03:55:33.100Z,1.80
2019-03-27T03:56:33.084Z,1.70
2019-03-27T03:57:33.075Z,1.90
2019-03-27T03:58:33.072Z,1.80
2019-03-27T03:59:33.068Z,1.50
2019-03-27T04:00:33.051Z,2.00
2019-03-27T04:01:33.069Z,1.70
2019-03-27T04:02:33.015Z,2.00
2019-03-27T04:03:33.005Z,2.10
2019-03-27T04:04:32.997Z,1.70
2019-03-27T04:05:32.992Z,1.80
2019-03-27T04:06:32.985Z,1.60
2019-03-27T04:07:32.970Z,1.60
2019-03-27T04:08:32.967Z,1.60
2019-03-27T04:09:32.943Z,1.80
2019-03-27T04:10:32.976Z,1.60
2019-03-27T04:11:32.934Z,1.50
2019-03-27T04:12:32.914Z,1.60
2019-03-27T04:13:32.905Z,2.10
2019-03-27T04:14:32.902Z,1.90
2019-03-27T04:15:32.877Z,2.00
2019-03-27T04:16:32.875Z,1.50
2019-03-27T04:17:32.860Z,1.70
2019-03-27T04:18:32.842Z,1.60
2019-03-27T04:19:32.835Z,1.70
2019-03-27T04:20:32.820Z,1.60
2019-03-27T04:21:32.812Z,1.50
2019-03-27T04:22:32.805Z,1.60
2019-03-27T04:23:32.786Z,1.90
2019-03-27T04:24:32.774Z,1.60
2019-03-27T04:26:06.416Z,1.70
2019-03-27T04:26:33.866Z,1.80
2019-03-27T04:27:32.743Z,1.80
2019-03-27T04:28:32.749Z,1.80
2019-03-27T04:29:32.722Z,1.60
2019-03-27T04:30:32.719Z,1.60
2019-03-27T04:31:32.703Z,1.70
2019-03-27T04:32:32.692Z,1.70
2019-03-27T04:33:32.682Z,1.60
2019-03-27T04:34:32.669Z,1.60
2019-03-27T04:35:32.659Z,1.50
2019-03-27T04:36:32.644Z,1.60
2019-03-27T04:37:32.635Z,1.60
2019-03-27T04:38:32.624Z,1.60
2019-03-27T04:39:32.630Z,1.90
2019-03-27T04:40:32.597Z,1.70
2019-03-27T04:41:32.590Z,1.90
2019-03-27T04:42:32.636Z,1.60
2019-03-27T04:43:32.589Z,1.60
2019-03-27T04:44:32.569Z,1.80
2019-03-27T04:45:32.549Z,1.90
2019-03-27T04:46:32.533Z,2.00
2019-03-27T04:47:32.787Z,1.60
2019-03-27T04:48:32.521Z,1.70
2019-03-27T04:49:32.496Z,1.70
2019-03-27T04:50:32.506Z,1.70
2019-03-27T04:51:32.488Z,1.70
2019-03-27T04:52:32.465Z,1.70
2019-03-27T04:53:32.461Z,1.60
2019-03-27T04:54:32.502Z,1.70
2019-03-27T04:55:32.431Z,1.70
2019-03-27T04:56:32.428Z,1.70
2019-03-27T04:57:32.420Z,1.60
2019-03-27T04:58:32.399Z,1.90
2019-03-27T04:59:32.400Z,1.60
2019-03-27T05:00:32.378Z,1.90
2019-03-27T05:01:32.365Z,1.70
2019-03-27T05:02:32.364Z,1.50
2019-03-27T05:03:32.342Z,1.30
2019-03-27T05:04:32.334Z,1.60
2019-03-27T05:05:32.322Z,1.70
2019-03-27T05:06:32.311Z,1.70
2019-03-27T05:07:32.299Z,1.80
2019-03-27T05:08:32.295Z,1.80
2019-03-27T05:09:32.277Z,2.00
2019-03-27T05:10:32.273Z,1.60
2019-03-27T05:11:32.255Z,1.60
2019-03-27T05:12:32.248Z,2.10
2019-03-27T05:13:32.240Z,1.70
2019-03-27T05:14:32.265Z,1.90
2019-03-27T05:15:32.211Z,1.50
2019-03-27T05:16:32.205Z,1.50
2019-03-27T05:17:44.803Z,1.70
2019-03-27T05:18:33.192Z,1.70
2019-03-27T05:19:32.174Z,1.40
2019-03-27T05:20:32.167Z,1.80
2019-03-27T05:21:32.143Z,1.60
2019-03-27T05:22:32.140Z,1.60
2019-03-27T05:23:32.125Z,1.70
2019-03-27T05:24:32.132Z,1.50
2019-03-27T05:25:32.109Z,1.60
2019-03-27T05:26:32.094Z,1.50
2019-03-27T05:27:32.078Z,1.80
2019-03-27T05:28:32.079Z,1.50
2019-03-27T05:29:32.061Z,1.90
2019-03-27T05:30:32.061Z,1.80
2019-03-27T05:31:32.044Z,1.50
2019-03-27T05:32:32.032Z,1.40
2019-03-27T05:33:32.804Z,1.70
2019-03-27T05:34:32.025Z,1.60
2019-03-27T05:35:31.998Z,1.50
2019-03-27T05:36:31.999Z,1.60
2019-03-27T05:37:31.978Z,1.50
2019-03-27T05:38:31.964Z,1.60
2019-03-27T05:39:31.950Z,1.60
2019-03-27T05:40:31.942Z,1.50
2019-03-27T05:41:31.934Z,1.90
2019-03-27T05:42:31.928Z,1.30
2019-03-27T05:43:31.909Z,1.40
2019-03-27T05:44:31.895Z,1.50
2019-03-27T05:45:31.892Z,1.50
2019-03-27T05:46:31.882Z,1.50
2019-03-27T05:47:31.869Z,1.60
2019-03-27T05:48:31.864Z,1.90
2019-03-27T05:49:31.847Z,1.70
2019-03-27T05:50:31.833Z,1.70
2019-03-27T05:51:31.821Z,1.50
2019-03-27T05:52:31.810Z,1.80
2019-03-27T05:53:31.806Z,1.70
2019-03-27T05:54:31.803Z,1.40
2019-03-27T05:55:31.785Z,1.60
2019-03-27T05:56:31.765Z,1.60
2019-03-27T05:57:31.755Z,1.50
2019-03-27T05:58:31.749Z,1.70
2019-03-27T05:59:31.739Z,1.50
2019-03-27T06:00:33.426Z,1.70
2019-03-27T06:01:31.760Z,1.50
2019-03-27T06:02:31.704Z,1.50
2019-03-27T06:03:31.749Z,1.70
2019-03-27T06:04:31.678Z,1.50
2019-03-27T06:05:31.716Z,1.50
2019-03-27T06:06:31.656Z,1.70
2019-03-27T06:07:31.686Z,1.40
2019-03-27T06:08:31.631Z,1.70
2019-03-27T06:09:31.662Z,2.00
2019-03-27T06:10:31.617Z,1.70
2019-03-27T06:11:31.618Z,1.50
2019-03-27T06:12:31.619Z,1.60
2019-03-27T06:13:31.585Z,1.80
2019-03-27T06:14:31.568Z,1.70
2019-03-27T06:15:31.572Z,1.90
2019-03-27T06:16:31.552Z,1.60
2019-03-27T06:17:31.538Z,1.60
2019-03-27T06:18:31.528Z,1.50
2019-03-27T06:19:31.517Z,1.40
2019-03-27T06:20:31.561Z,1.50
2019-03-27T06:21:31.516Z,1.60
2019-03-27T06:22:31.494Z,1.60
2019-03-27T06:23:31.480Z,1.50
2019-03-27T06:24:31.460Z,1.50
2019-03-27T06:25:31.451Z,1.90
2019-03-27T06:26:31.447Z,1.40
2019-03-27T06:27:31.466Z,1.40
2019-03-27T06:28:31.426Z,1.60
2019-03-27T06:29:31.404Z,1.50
2019-03-27T06:30:31.461Z,1.50
2019-03-27T06:31:31.386Z,1.70
2019-03-27T06:32:31.378Z,1.40
2019-03-27T06:33:31.373Z,1.80
2019-03-27T06:34:31.357Z,1.60
2019-03-27T06:35:31.339Z,1.60
2019-03-27T06:36:31.338Z,1.50
2019-03-27T06:37:31.323Z,1.50
2019-03-27T06:38:31.317Z,1.40
2019-03-27T06:39:31.309Z,1.40
2019-03-27T06:40:31.295Z,1.80
2019-03-27T06:41:31.273Z,2.00
2019-03-27T06:42:31.263Z,1.80
2019-03-27T06:43:31.265Z,1.80
2019-03-27T06:44:31.254Z,1.70
2019-03-27T06:45:31.247Z,1.60
2019-03-27T06:46:31.224Z,1.60
2019-03-27T06:47:31.211Z,1.40
2019-03-27T06:48:31.203Z,1.60
2019-03-27T06:49:31.190Z,1.70
2019-03-27T06:50:31.186Z,1.60
2019-03-27T06:51:39.865Z,1.50
2019-03-27T06:52:32.155Z,1.60
2019-03-27T06:53:31.191Z,1.50
2019-03-27T06:54:31.153Z,1.50
2019-03-27T06:55:31.134Z,1.50
2019-03-27T06:56:31.128Z,2.10
2019-03-27T06:57:31.128Z,1.70
2019-03-27T06:58:31.094Z,1.80
2019-03-27T06:59:31.083Z,2.10
2019-03-27T07:00:31.069Z,2.10
2019-03-27T07:01:31.067Z,2.20
2019-03-27T07:02:31.057Z,1.90
2019-03-27T07:03:31.071Z,2.00
2019-03-27T07:04:31.027Z,1.90
2019-03-27T07:05:31.016Z,2.20
2019-03-27T07:06:31.005Z,2.00
2019-03-27T07:07:30.996Z,2.30
2019-03-27T07:08:31.004Z,2.30
2019-03-27T07:09:30.985Z,2.00
2019-03-27T07:10:30.968Z,2.20
2019-03-27T07:11:30.955Z,2.20
2019-03-27T07:12:30.961Z,2.00
2019-03-27T07:13:30.937Z,2.40
2019-03-27T07:14:30.928Z,2.10
2019-03-27T07:15:30.916Z,1.90
2019-03-27T07:16:30.897Z,2.40
2019-03-27T07:17:30.894Z,2.30
2019-03-27T07:18:40.075Z,2.10
2019-03-27T07:19:31.870Z,2.20
2019-03-27T07:20:30.868Z,1.70
2019-03-27T07:21:30.847Z,2.00
2019-03-27T07:22:30.833Z,2.30
2019-03-27T07:23:30.836Z,2.20
2019-03-27T07:24:30.815Z,2.20
2019-03-27T07:25:30.807Z,1.70
2019-03-27T07:26:30.809Z,2.20
2019-03-27T07:27:30.802Z,2.30
2019-03-27T07:28:30.771Z,2.00
2019-03-27T07:29:30.760Z,1.90
2019-03-27T07:30:30.753Z,2.20
2019-03-27T07:31:30.751Z,2.40
2019-03-27T07:32:30.739Z,2.20
2019-03-27T07:33:30.718Z,2.10
2019-03-27T07:34:30.709Z,2.20
2019-03-27T07:35:30.691Z,2.20
2019-03-27T07:36:30.687Z,2.20
2019-03-27T07:37:30.675Z,2.10
2019-03-27T07:38:30.707Z,2.40
2019-03-27T07:39:30.650Z,2.40
2019-03-27T07:40:30.641Z,2.10
2019-03-27T07:41:30.627Z,2.10
2019-03-27T07:42:30.624Z,1.90
2019-03-27T07:43:30.634Z,2.00
2019-03-27T07:44:30.610Z,2.00
2019-03-27T07:45:30.585Z,2.00
2019-03-27T07:46:30.575Z,1.90
2019-03-27T07:47:30.565Z,1.90
2019-03-27T07:48:30.560Z,1.80
2019-03-27T07:49:30.562Z,1.90
2019-03-27T07:50:30.532Z,2.10
2019-03-27T07:51:30.525Z,1.90
2019-03-27T07:52:30.518Z,2.10
2019-03-27T07:53:30.503Z,2.00
2019-03-27T07:54:30.492Z,2.30
2019-03-27T07:55:30.483Z,2.00
2019-03-27T07:56:30.470Z,2.10
2019-03-27T07:57:30.454Z,2.40
2019-03-27T07:58:30.443Z,2.20
2019-03-27T07:59:30.432Z,2.10
2019-03-27T08:00:30.429Z,1.90
2019-03-27T08:01:30.436Z,2.00
2019-03-27T08:02:30.415Z,1.90
2019-03-27T08:03:30.401Z,1.90
2019-03-27T08:04:30.376Z,2.10
2019-03-27T08:05:30.368Z,2.20
2019-03-27T08:06:30.371Z,2.00
2019-03-27T08:07:30.346Z,2.10
2019-03-27T08:08:30.342Z,2.10
2019-03-27T08:09:30.323Z,1.90
2019-03-27T08:10:30.389Z,2.30
2019-03-27T08:11:30.381Z,2.00
2019-03-27T08:12:30.311Z,2.00
2019-03-27T08:13:30.278Z,2.00
2019-03-27T08:14:30.276Z,2.10
2019-03-27T08:15:30.257Z,2.00
2019-03-27T08:16:30.249Z,2.10
2019-03-27T08:17:30.243Z,2.00
2019-03-27T08:18:30.254Z,2.10
2019-03-27T08:19:30.220Z,1.90
2019-03-27T08:20:30.209Z,2.00
2019-03-27T08:21:31.321Z,2.00
2019-03-27T08:22:30.180Z,2.20
2019-03-27T08:23:30.179Z,1.80
2019-03-27T08:24:30.177Z,2.00
2019-03-27T08:25:30.158Z,2.10
2019-03-27T08:26:30.156Z,2.00
2019-03-27T08:27:30.126Z,2.00
2019-03-27T08:28:30.118Z,1.80
2019-03-27T08:29:30.126Z,1.80
2019-03-27T08:30:30.094Z,2.00
2019-03-27T08:31:30.086Z,2.10
2019-03-27T08:32:30.075Z,1.80
2019-03-27T08:33:30.076Z,1.90
2019-03-27T08:34:30.058Z,1.90
2019-03-27T08:35:30.056Z,2.00
2019-03-27T08:36:30.053Z,1.90
2019-03-27T08:37:30.026Z,2.00
2019-03-27T08:38:30.011Z,2.00
2019-03-27T08:39:30.007Z,2.10
2019-03-27T08:40:29.994Z,2.20
2019-03-27T08:41:30.004Z,2.30
2019-03-27T08:42:29.980Z,1.80
2019-03-27T08:43:29.959Z,2.20
2019-03-27T08:44:29.945Z,2.10
2019-03-27T08:45:29.939Z,2.10
2019-03-27T08:46:29.935Z,1.90
2019-03-27T08:47:29.938Z,2.30
2019-03-27T08:48:29.907Z,1.80
2019-03-27T08:49:29.896Z,2.00
2019-03-27T08:50:29.886Z,1.80
2019-03-27T08:51:29.870Z,1.80
2019-03-27T08:52:29.867Z,2.30
2019-03-27T08:53:29.856Z,2.20
2019-03-27T08:54:29.909Z,1.90
2019-03-27T08:55:29.839Z,1.90
2019-03-27T08:56:29.820Z,2.30
2019-03-27T08:57:29.813Z,1.90
2019-03-27T08:58:29.814Z,2.10
2019-03-27T08:59:29.784Z,2.00
2019-03-27T09:00:29.771Z,2.00
2019-03-27T09:01:29.772Z,2.10
2019-03-27T09:02:29.757Z,2.00
2019-03-27T09:03:29.741Z,2.10
2019-03-27T09:04:29.736Z,1.90
2019-03-27T09:05:29.727Z,2.20
2019-03-27T09:06:33.968Z,1.90
2019-03-27T09:07:29.710Z,2.20
2019-03-27T09:08:29.693Z,2.00
2019-03-27T09:09:29.714Z,2.20
2019-03-27T09:10:29.679Z,1.80
2019-03-27T09:11:29.660Z,1.90
2019-03-27T09:12:29.642Z,2.30
2019-03-27T09:13:29.636Z,2.20
2019-03-27T09:14:29.626Z,2.20
2019-03-27T09:15:29.612Z,2.10
2019-03-27T09:16:29.608Z,2.00
2019-03-27T09:17:29.592Z,2.20
2019-03-27T09:18:29.580Z,2.60
2019-03-27T09:19:35.537Z,2.20
2019-03-27T09:20:30.561Z,2.00
2019-03-27T09:21:29.551Z,2.10
2019-03-27T09:22:29.549Z,2.10
2019-03-27T09:23:29.528Z,2.00
2019-03-27T09:24:29.514Z,1.90
2019-03-27T09:25:29.512Z,2.10
2019-03-27T09:26:29.493Z,1.90
2019-03-27T09:27:29.507Z,2.10
2019-03-27T09:28:29.506Z,2.10
2019-03-27T09:29:29.458Z,2.00
2019-03-27T09:30:29.447Z,1.90
2019-03-27T09:31:29.444Z,2.00
2019-03-27T09:32:29.433Z,2.00
2019-03-27T09:33:29.491Z,1.90
2019-03-27T09:34:29.439Z,1.80
2019-03-27T09:35:29.394Z,2.10
2019-03-27T09:36:29.385Z,2.30
2019-03-27T09:37:29.388Z,2.00
2019-03-27T09:38:29.361Z,2.10
2019-03-27T09:39:29.378Z,2.30
2019-03-27T09:40:29.347Z,1.80
2019-03-27T09:41:29.328Z,2.10
2019-03-27T09:42:29.321Z,2.00
2019-03-27T09:43:29.305Z,1.80
2019-03-27T09:44:29.339Z,2.40
2019-03-27T09:45:29.299Z,1.80
2019-03-27T09:46:29.269Z,1.80
2019-03-27T09:47:29.262Z,1.90
2019-03-27T09:48:29.247Z,1.80
2019-03-27T09:49:29.242Z,1.80
2019-03-27T09:50:29.278Z,1.50
2019-03-27T09:51:29.237Z,2.20
2019-03-27T09:52:29.208Z,1.90
2019-03-27T09:53:29.195Z,1.80
2019-03-27T09:54:29.183Z,2.10
2019-03-27T09:55:29.171Z,1.80
2019-03-27T09:56:29.169Z,2.30
2019-03-27T09:57:29.149Z,1.80
2019-03-27T09:58:29.142Z,1.80
2019-03-27T09:59:29.133Z,2.10
2019-03-27T10:00:29.130Z,1.70
2019-03-27T10:01:29.107Z,1.90
2019-03-27T10:02:29.125Z,1.90
2019-03-27T10:03:29.088Z,2.10
2019-03-27T10:04:29.076Z,1.80
2019-03-27T10:05:29.064Z,1.50
2019-03-27T10:06:29.070Z,1.90
2019-03-27T10:07:29.046Z,1.80
2019-03-27T10:08:29.047Z,1.90
2019-03-27T10:09:29.022Z,2.00
2019-03-27T10:10:29.058Z,1.90
2019-03-27T10:11:29.010Z,1.90
2019-03-27T10:12:28.989Z,1.80
2019-03-27T10:13:29.206Z,2.00
2019-03-27T10:14:28.993Z,1.70
2019-03-27T10:15:28.970Z,2.00
2019-03-27T10:16:28.947Z,2.00
2019-03-27T10:17:28.935Z,1.80
2019-03-27T10:18:28.931Z,1.90
2019-03-27T10:19:28.924Z,1.80
2019-03-27T10:20:28.926Z,2.10
2019-03-27T10:21:28.893Z,2.00
2019-03-27T10:22:28.884Z,1.90
2019-03-27T10:23:28.878Z,1.90
2019-03-27T10:24:28.880Z,1.80
2019-03-27T10:25:28.866Z,1.60
2019-03-27T10:26:28.863Z,2.00
2019-03-27T10:27:28.829Z,1.90
2019-03-27T10:28:28.820Z,1.80
2019-03-27T10:29:28.814Z,1.80
2019-03-27T10:30:28.827Z,1.80
2019-03-27T10:31:28.804Z,1.70
2019-03-27T10:32:28.803Z,1.90
2019-03-27T10:33:28.832Z,1.70
2019-03-27T10:34:28.754Z,2.00
2019-03-27T10:35:28.745Z,2.00
2019-03-27T10:36:28.741Z,1.90
2019-03-27T10:37:28.754Z,2.20
2019-03-27T10:38:28.709Z,2.40
2019-03-27T10:39:28.698Z,1.70
2019-03-27T10:40:28.689Z,1.90
2019-03-27T10:41:28.682Z,1.60
2019-03-27T10:42:28.676Z,2.00
2019-03-27T10:43:28.679Z,2.00
2019-03-27T10:44:28.644Z,1.70
2019-03-27T10:45:28.636Z,1.90
2019-03-27T10:46:28.630Z,1.80
2019-03-27T10:47:28.620Z,2.00
2019-03-27T10:48:28.627Z,1.90
2019-03-27T10:49:28.617Z,2.00
2019-03-27T10:50:28.888Z,1.80
2019-03-27T10:51:28.572Z,1.80
2019-03-27T10:52:28.574Z,2.00
2019-03-27T10:53:28.561Z,1.70
2019-03-27T10:54:28.783Z,1.90
2019-03-27T10:55:28.558Z,1.90
2019-03-27T10:56:28.521Z,1.70
2019-03-27T10:57:28.509Z,1.90
2019-03-27T10:58:28.508Z,1.90
2019-03-27T10:59:28.491Z,2.00
2019-03-27T11:00:28.499Z,2.00
2019-03-27T11:01:28.509Z,2.00
2019-03-27T11:02:28.451Z,1.80
2019-03-27T11:03:28.444Z,1.90
2019-03-27T11:04:28.434Z,1.80
2019-03-27T11:05:28.433Z,1.80
2019-03-27T11:06:28.533Z,2.10
2019-03-27T11:07:28.427Z,1.80
2019-03-27T11:08:28.391Z,2.00
2019-03-27T11:09:28.392Z,1.70
2019-03-27T11:10:28.377Z,1.70
2019-03-27T11:11:28.379Z,2.10
2019-03-27T11:12:28.382Z,1.30
2019-03-27T11:13:28.346Z,1.80
2019-03-27T11:14:37.834Z,1.70
2019-03-27T11:15:29.340Z,1.60
2019-03-27T11:16:28.315Z,2.10
2019-03-27T11:17:28.313Z,1.60
2019-03-27T11:18:28.328Z,1.90
2019-03-27T11:19:28.303Z,1.80
2019-03-27T11:20:31.231Z,1.80
2019-03-27T11:21:28.269Z,1.90
2019-03-27T11:22:28.252Z,1.60
2019-03-27T11:23:28.279Z,2.00
2019-03-27T11:24:28.265Z,1.60
2019-03-27T11:25:28.217Z,1.80
2019-03-27T11:26:28.202Z,2.00
2019-03-27T11:27:28.189Z,1.90
2019-03-27T11:28:28.195Z,2.00
2019-03-27T11:29:28.218Z,1.90
2019-03-27T11:30:28.172Z,1.90
2019-03-27T11:31:28.211Z,1.50
2019-03-27T11:32:28.138Z,1.90
2019-03-27T11:33:29.006Z,1.80
2019-03-27T11:34:28.151Z,1.70
2019-03-27T11:35:28.139Z,1.80
2019-03-27T11:36:28.106Z,1.50
2019-03-27T11:37:28.084Z,1.90
2019-03-27T11:38:28.110Z,2.00
2019-03-27T11:39:28.069Z,1.60
2019-03-27T11:40:28.083Z,1.40
2019-03-27T11:41:28.041Z,1.60
2019-03-27T11:42:28.063Z,1.60
2019-03-27T11:43:28.019Z,1.60
2019-03-27T11:44:28.008Z,1.80
2019-03-27T11:45:28.027Z,1.60
2019-03-27T11:46:28.005Z,1.70
2019-03-27T11:47:27.989Z,1.70
2019-03-27T11:48:27.973Z,1.70
2019-03-27T11:49:28.017Z,1.50
2019-03-27T11:50:27.948Z,1.80
2019-03-27T11:51:27.958Z,1.80
2019-03-27T11:52:29.667Z,1.80
2019-03-27T11:53:27.964Z,2.00
2019-03-27T11:54:27.923Z,1.70
2019-03-27T11:55:27.895Z,1.60
2019-03-27T11:56:27.950Z,1.70
2019-03-27T11:57:27.903Z,1.50
2019-03-27T11:58:27.913Z,1.60
2019-03-27T11:59:27.854Z,1.80
2019-03-27T12:00:27.875Z,1.80
2019-03-27T12:01:39.204Z,1.80
2019-03-27T12:02:28.866Z,1.80
2019-03-27T12:03:27.810Z,1.70
2019-03-27T12:04:27.799Z,1.40
2019-03-27T12:05:27.793Z,1.60
2019-03-27T12:06:27.810Z,1.70
2019-03-27T12:07:27.757Z,1.50
2019-03-27T12:08:27.772Z,1.70
2019-03-27T12:09:27.737Z,1.50
2019-03-27T12:10:27.733Z,1.70
2019-03-27T12:11:27.732Z,1.80
2019-03-27T12:12:27.711Z,1.50
2019-03-27T12:13:27.703Z,1.60
2019-03-27T12:14:27.708Z,1.40
2019-03-27T12:15:27.678Z,1.90
2019-03-27T12:16:27.668Z,2.00
2019-03-27T12:17:27.661Z,1.50
2019-03-27T12:18:27.644Z,1.60
2019-03-27T12:19:27.640Z,1.70
2019-03-27T12:20:27.635Z,1.70
2019-03-27T12:21:27.614Z,1.60
2019-03-27T12:22:27.607Z,1.80
2019-03-27T12:23:27.597Z,1.40
2019-03-27T12:24:28.729Z,1.70
2019-03-27T12:25:27.571Z,1.60
2019-03-27T12:26:27.589Z,1.60
2019-03-27T12:27:27.554Z,1.70
2019-03-27T12:28:27.553Z,1.80
2019-03-27T12:29:27.539Z,1.70
2019-03-27T12:30:27.522Z,1.50
2019-03-27T12:31:27.510Z,1.60
2019-03-27T12:32:27.495Z,1.70
2019-03-27T12:33:27.496Z,1.90
2019-03-27T12:34:27.501Z,1.70
2019-03-27T12:35:27.466Z,1.70
2019-03-27T12:36:27.454Z,1.60
2019-03-27T12:37:27.437Z,1.90
2019-03-27T12:38:27.432Z,1.50
2019-03-27T12:39:27.431Z,1.50
2019-03-27T12:40:27.407Z,1.70
2019-03-27T12:41:27.399Z,1.70
2019-03-27T12:42:27.392Z,1.50
2019-03-27T12:43:27.415Z,1.40
2019-03-27T12:44:27.369Z,1.60
2019-03-27T12:45:27.358Z,1.60
2019-03-27T12:46:27.352Z,1.70
2019-03-27T12:47:27.340Z,1.70
2019-03-27T12:48:27.360Z,1.80
2019-03-27T12:49:27.366Z,1.60
2019-03-27T12:50:27.301Z,1.60
2019-03-27T12:51:27.288Z,1.90
2019-03-27T12:52:27.278Z,1.80
2019-03-27T12:53:27.288Z,1.60
2019-03-27T12:54:27.254Z,1.80
2019-03-27T12:55:27.248Z,1.80
2019-03-27T12:56:27.241Z,1.70
2019-03-27T12:57:27.227Z,1.60
2019-03-27T12:58:27.221Z,1.70
2019-03-27T12:59:27.214Z,1.70
2019-03-27T13:00:27.191Z,1.70
2019-03-27T13:01:27.187Z,1.60
2019-03-27T13:02:27.174Z,1.80
2019-03-27T13:03:27.168Z,1.70
2019-03-27T13:04:27.150Z,1.70
2019-03-27T13:05:27.186Z,1.60
2019-03-27T13:06:27.133Z,1.60
2019-03-27T13:07:27.118Z,1.40
2019-03-27T13:08:27.109Z,1.60
2019-03-27T13:09:27.117Z,1.50
2019-03-27T13:10:27.096Z,1.60
2019-03-27T13:11:27.098Z,1.60
2019-03-27T13:12:27.065Z,1.70
2019-03-27T13:13:27.060Z,1.50
2019-03-27T13:14:27.050Z,1.40
2019-03-27T13:15:27.034Z,1.60
2019-03-27T13:16:27.063Z,1.70
2019-03-27T13:17:27.038Z,1.60
2019-03-27T13:18:26.997Z,1.60